Time;durP1;ratioP1;P1;durP2;ratioP2;P2;SDS_P1;SDS_P2;PMS_P1;PMS_P2;Temp;Humidity;BMP_temperature;BMP_pressure;BME280_temperature;BME280_humidity;BME280_pressure;Samples;Min_cycle;Max_cycle;Signal;HPM_P1;HPM_P2
2023/03/23 05:02:19;;;;;;;2.00;2.00;;;10.80;99.90;;;;;;5059502;23;20231;-75
2023/03/23 05:04:46;;;;;;;1.17;1.17;;;10.80;99.90;;;;;;4892857;29;20239;-72
2023/03/23 05:07:13;;;;;;;1.70;1.60;;;10.80;99.90;;;;;;4892879;29;20590;-70
2023/03/23 05:09:40;;;;;;;6.38;1.70;;;10.80;99.90;;;;;;4895274;29;20211;-71
2023/03/23 05:12:09;;;;;;;2.08;1.98;;;10.80;99.90;;;;;;4885214;29;20230;-71
2023/03/23 05:14:36;;;;;;;3.03;2.88;;;10.80;99.90;;;;;;4897104;29;20923;-70
2023/03/23 05:17:03;;;;;;;2.60;1.65;;;10.80;99.90;;;;;;4888158;29;20231;-70
2023/03/23 05:19:32;;;;;;;2.35;2.15;;;10.80;99.90;;;;;;4897882;29;20217;-70
2023/03/23 05:22:02;;;;;;;2.08;1.98;;;10.80;99.90;;;;;;4902098;29;20722;-71
2023/03/23 05:24:31;;;;;;;2.00;1.77;;;10.80;99.90;;;;;;4902057;29;20218;-70
2023/03/23 05:26:57;;;;;;;3.20;2.90;;;10.80;99.90;;;;;;4903939;29;20641;-71
2023/03/23 05:29:25;;;;;;;1.67;1.20;;;10.80;99.90;;;;;;4890062;29;22145;-70
2023/03/23 05:31:52;;;;;;;1.48;1.33;;;10.80;99.90;;;;;;4893975;29;20332;-71
2023/03/23 05:34:19;;;;;;;2.15;1.90;;;10.80;99.90;;;;;;4886739;29;20219;-72
2023/03/23 05:36:47;;;;;;;1.08;1.08;;;10.80;99.90;;;;;;4891532;29;20356;-71
2023/03/23 05:39:16;;;;;;;4.03;1.63;;;10.80;99.90;;;;;;4897327;29;20207;-71
2023/03/23 05:41:43;;;;;;;1.98;1.88;;;10.80;99.90;;;;;;4899804;29;20239;-70
2023/03/23 05:44:13;;;;;;;1.13;1.13;;;10.80;99.90;;;;;;4897455;29;20204;-70
2023/03/23 05:46:39;;;;;;;1.80;1.70;;;10.80;99.90;;;;;;4894447;29;20630;-71
2023/03/23 05:49:07;;;;;;;1.27;1.20;;;10.80;99.90;;;;;;4901459;29;20610;-72
2023/03/23 05:51:34;;;;;;;1.88;1.88;;;10.80;99.90;;;;;;4895153;29;20230;-71
2023/03/23 05:54:03;;;;;;;3.42;1.25;;;10.80;99.90;;;;;;4894077;29;20670;-71
2023/03/23 05:56:30;;;;;;;1.65;1.55;;;10.80;99.90;;;;;;4895396;29;20220;-70
2023/03/23 05:58:57;;;;;;;2.65;2.45;;;10.80;99.90;;;;;;4901519;29;20203;-71
2023/03/23 06:01:24;;;;;;;2.05;1.95;;;10.80;99.90;;;;;;4890867;29;20239;-71
2023/03/23 06:03:53;;;;;;;2.17;1.98;;;10.80;99.90;;;;;;4891730;29;20211;-72
2023/03/23 06:06:20;;;;;;;2.22;1.67;;;10.80;99.90;;;;;;4905191;29;20222;-72
2023/03/23 06:08:48;;;;;;;3.67;1.58;;;10.80;99.90;;;;;;4893934;29;20215;-71
2023/03/23 06:11:16;;;;;;;1.30;1.30;;;10.90;99.90;;;;;;4892237;29;20235;-69
2023/03/23 06:13:44;;;;;;;1.35;1.30;;;10.90;99.90;;;;;;4900503;29;20676;-74
2023/03/23 06:16:11;;;;;;;2.20;2.10;;;10.90;99.90;;;;;;4895877;29;20261;-69
2023/03/23 06:18:40;;;;;;;3.40;1.92;;;10.90;99.90;;;;;;4894516;29;20219;-69
2023/03/23 06:21:07;;;;;;;2.58;2.17;;;10.90;99.90;;;;;;4895246;29;20231;-69
2023/03/23 06:23:34;;;;;;;1.20;1.15;;;10.90;99.90;;;;;;4899729;29;20207;-70
2023/03/23 06:26:05;;;;;;;1.92;1.85;;;10.90;99.90;;;;;;4890703;29;20207;-70
2023/03/23 06:28:34;;;;;;;5.50;2.85;;;10.90;99.90;;;;;;4902748;29;20207;-69
2023/03/23 06:31:02;;;;;;;11.50;3.58;;;11.00;99.90;;;;;;4902395;29;20237;-69
2023/03/23 06:33:28;;;;;;;6.43;2.78;;;11.00;99.90;;;;;;4896216;29;20262;-70
2023/03/23 06:35:55;;;;;;;17.25;10.93;;;11.00;99.90;;;;;;4895746;29;20239;-68
2023/03/23 06:38:22;;;;;;;3.25;3.05;;;11.00;99.90;;;;;;4893863;29;20211;-69
2023/03/23 06:40:52;;;;;;;3.83;3.47;;;11.00;99.90;;;;;;4888786;29;20235;-68
2023/03/23 06:43:21;;;;;;;7.03;4.47;;;11.10;99.90;;;;;;4900490;29;20692;-70
2023/03/23 06:45:50;;;;;;;5.13;4.78;;;11.10;99.90;;;;;;4904670;29;20294;-70
2023/03/23 06:48:17;;;;;;;6.15;4.25;;;11.10;99.90;;;;;;4898394;29;20215;-69
2023/03/23 06:50:45;;;;;;;2.42;2.30;;;11.20;99.90;;;;;;4898813;29;20231;-69
2023/03/23 06:53:12;;;;;;;4.32;3.45;;;11.20;99.90;;;;;;4898158;29;20298;-69
2023/03/23 06:55:40;;;;;;;7.00;3.05;;;11.20;99.90;;;;;;4901759;29;20218;-69
2023/03/23 06:58:07;;;;;;;7.22;3.28;;;11.20;99.90;;;;;;4900149;29;20215;-69
2023/03/23 07:00:34;;;;;;;5.60;3.67;;;11.20;99.90;;;;;;4892540;29;20476;-70
2023/03/23 07:03:03;;;;;;;3.60;3.40;;;11.20;99.90;;;;;;4892675;29;20207;-70
2023/03/23 07:05:30;;;;;;;2.58;2.35;;;11.30;99.90;;;;;;4895089;29;20206;-69
2023/03/23 07:07:57;;;;;;;2.78;1.38;;;11.30;99.90;;;;;;4894416;29;20214;-68
2023/03/23 07:10:24;;;;;;;1.05;1.05;;;11.30;99.90;;;;;;4901402;29;20221;-67
2023/03/23 07:12:51;;;;;;;4.45;2.15;;;11.40;99.90;;;;;;4899633;29;20226;-66
2023/03/23 07:15:18;;;;;;;3.25;3.05;;;11.50;99.90;;;;;;4901963;29;20213;-67
2023/03/23 07:17:45;;;;;;;1.15;1.15;;;11.60;99.90;;;;;;4893275;29;20238;-65
2023/03/23 07:20:14;;;;;;;1.20;1.20;;;11.60;99.90;;;;;;4892648;29;20543;-66
2023/03/23 07:22:41;;;;;;;2.30;2.10;;;11.70;99.90;;;;;;4894983;29;20226;-67
2023/03/23 07:25:09;;;;;;;1.40;1.40;;;11.70;99.90;;;;;;4905058;29;20471;-67
2023/03/23 07:27:36;;;;;;;1.47;1.37;;;11.70;99.90;;;;;;4894103;29;20207;-67
2023/03/23 07:30:03;;;;;;;1.03;1.03;;;11.80;99.90;;;;;;4905901;29;20984;-67
2023/03/23 07:32:29;;;;;;;1.47;1.37;;;11.80;99.90;;;;;;4895669;29;20554;-67
2023/03/23 07:34:56;;;;;;;1.13;1.13;;;11.90;99.90;;;;;;4903770;29;20960;-67
2023/03/23 07:37:25;;;;;;;0.90;0.90;;;11.90;99.90;;;;;;4889765;29;20574;-68
2023/03/23 07:39:52;;;;;;;0.90;0.90;;;12.00;99.90;;;;;;4896125;29;20215;-68
2023/03/23 07:42:19;;;;;;;2.90;1.03;;;12.10;99.90;;;;;;4897050;29;20497;-68
2023/03/23 07:44:46;;;;;;;0.97;0.97;;;12.20;99.90;;;;;;4895919;29;20567;-67
2023/03/23 07:47:13;;;;;;;1.10;1.10;;;12.20;99.90;;;;;;4896262;29;20940;-67
2023/03/23 07:49:39;;;;;;;2.63;1.63;;;12.20;99.90;;;;;;4901344;29;20506;-68
2023/03/23 07:52:06;;;;;;;1.37;0.77;;;12.10;99.90;;;;;;4897912;29;21004;-69
2023/03/23 07:54:34;;;;;;;1.70;1.70;;;12.00;99.90;;;;;;4898607;29;20521;-67
2023/03/23 07:57:01;;;;;;;1.10;1.10;;;11.90;99.90;;;;;;4908871;29;20491;-67
2023/03/23 07:59:28;;;;;;;1.30;1.30;;;11.80;99.90;;;;;;4909095;29;20321;-68
2023/03/23 08:01:54;;;;;;;0.77;0.77;;;11.70;99.90;;;;;;4896098;29;20600;-68
2023/03/23 08:04:24;;;;;;;1.10;1.10;;;11.70;99.90;;;;;;4896388;29;20207;-68
2023/03/23 08:06:51;;;;;;;1.40;1.40;;;11.70;99.90;;;;;;4901275;29;21807;-68
2023/03/23 08:09:21;;;;;;;1.55;1.55;;;11.60;99.90;;;;;;4897905;29;20208;-69
2023/03/23 08:11:50;;;;;;;0.80;0.80;;;11.60;99.90;;;;;;4900571;29;20241;-70
2023/03/23 08:14:21;;;;;;;0.65;0.65;;;11.60;99.90;;;;;;4902822;29;20374;-67
2023/03/23 08:16:57;;;;;;;1.08;0.77;;;11.60;99.90;;;;;;4907970;29;20234;-69
2023/03/23 08:19:29;;;;;;;1.60;1.17;;;11.80;99.90;;;;;;4896375;29;20210;-68
2023/03/23 08:22:04;;;;;;;1.50;1.40;;;11.90;99.90;;;;;;4894965;29;20227;-68
2023/03/23 08:24:32;;;;;;;2.40;1.30;;;12.00;99.90;;;;;;4905374;29;20266;-68
2023/03/23 08:27:01;;;;;;;1.70;1.70;;;12.20;99.90;;;;;;4894278;29;20567;-68
2023/03/23 08:29:33;;;;;;;1.20;1.20;;;12.30;99.90;;;;;;4901465;29;20470;-69
2023/03/23 08:32:02;;;;;;;1.10;1.10;;;12.40;99.90;;;;;;4903150;29;20507;-68
2023/03/23 08:34:38;;;;;;;0.80;0.80;;;12.40;99.90;;;;;;4898480;29;20474;-68
2023/03/23 08:37:07;;;;;;;1.60;1.60;;;12.50;99.90;;;;;;4902113;29;20492;-68
2023/03/23 08:39:42;;;;;;;2.63;1.03;;;12.60;99.90;;;;;;4897391;29;20538;-68
2023/03/23 08:42:13;;;;;;;1.30;1.20;;;12.70;99.90;;;;;;4903024;29;20533;-67
2023/03/23 08:44:47;;;;;;;0.70;0.70;;;12.70;99.90;;;;;;4907776;29;20482;-68
2023/03/23 08:47:17;;;;;;;0.57;0.57;;;12.70;99.90;;;;;;4908090;29;20544;-67
2023/03/23 08:49:54;;;;;;;0.90;0.90;;;12.70;99.90;;;;;;4901006;29;20470;-67
2023/03/23 08:52:22;;;;;;;0.70;0.70;;;12.70;99.90;;;;;;4901088;29;20581;-67
2023/03/23 08:54:49;;;;;;;0.87;0.87;;;12.70;99.90;;;;;;4903877;29;20478;-67
2023/03/23 08:57:21;;;;;;;1.43;1.43;;;12.70;99.90;;;;;;4908210;29;20515;-67
2023/03/23 08:59:49;;;;;;;1.47;1.40;;;12.80;99.90;;;;;;4897153;29;20467;-69
2023/03/23 09:02:18;;;;;;;2.10;1.80;;;12.80;99.90;;;;;;4906262;29;20503;-67
2023/03/23 09:04:45;;;;;;;1.60;1.60;;;12.80;99.90;;;;;;4899104;29;20517;-67
2023/03/23 09:07:19;;;;;;;1.67;1.57;;;12.80;99.90;;;;;;4893519;29;20502;-67
2023/03/23 09:09:49;;;;;;;1.07;1.07;;;12.80;99.90;;;;;;4895522;29;20500;-67
2023/03/23 09:12:18;;;;;;;1.70;1.70;;;12.70;99.90;;;;;;4894919;29;20567;-66
2023/03/23 09:14:47;;;;;;;1.80;1.40;;;12.70;99.90;;;;;;4903805;29;20912;-67
2023/03/23 09:17:21;;;;;;;1.23;1.23;;;12.60;99.90;;;;;;4896558;29;20491;-68
2023/03/23 09:19:50;;;;;;;0.63;0.60;;;12.60;99.90;;;;;;4896342;29;20482;-69
2023/03/23 09:22:23;;;;;;;0.83;0.83;;;12.50;99.90;;;;;;4903258;29;20493;-68
2023/03/23 09:24:52;;;;;;;1.90;0.87;;;12.50;99.90;;;;;;4901906;29;20552;-68
2023/03/23 09:27:25;;;;;;;1.00;1.00;;;12.50;99.90;;;;;;4896855;29;20495;-68
2023/03/23 09:29:58;;;;;;;2.10;1.60;;;12.50;99.90;;;;;;4895747;29;20474;-68
2023/03/23 09:32:26;;;;;;;0.70;0.70;;;12.50;99.90;;;;;;4893595;29;20499;-69
2023/03/23 09:34:57;;;;;;;0.90;0.90;;;12.50;99.90;;;;;;4887745;29;20476;-69
2023/03/23 09:37:34;;;;;;;0.60;0.60;;;12.40;99.90;;;;;;4910006;29;20486;-69
2023/03/23 09:40:15;;;;;;;3.33;0.83;;;12.30;99.90;;;;;;4878098;29;20478;-68
2023/03/23 09:43:05;;;;;;;1.33;1.23;;;12.30;99.90;;;;;;4890827;29;20941;-68
2023/03/23 09:45:40;;;;;;;0.37;0.37;;;12.20;99.90;;;;;;4861256;29;20478;-68
2023/03/23 09:48:34;;;;;;;2.63;1.47;;;12.20;99.90;;;;;;4894128;29;20474;-68
2023/03/23 09:51:15;;;;;;;2.83;2.43;;;12.10;99.90;;;;;;4911042;29;20525;-69
2023/03/23 09:53:53;;;;;;;0.90;0.90;;;12.10;99.90;;;;;;4893772;29;20563;-69
2023/03/23 09:56:26;;;;;;;3.70;2.30;;;12.10;99.90;;;;;;4893928;29;20475;-68
2023/03/23 09:58:58;;;;;;;0.50;0.50;;;12.00;99.90;;;;;;4894126;29;22473;-68
2023/03/23 10:01:36;;;;;;;0.33;0.33;;;12.00;99.90;;;;;;4891248;29;20239;-68
2023/03/23 10:04:17;;;;;;;0.30;0.30;;;12.10;99.90;;;;;;4892854;29;20475;-68
2023/03/23 10:06:48;;;;;;;2.10;0.67;;;12.10;99.90;;;;;;4905527;29;20218;-68
2023/03/23 10:09:17;;;;;;;0.33;0.33;;;12.30;99.90;;;;;;4888062;29;20480;-68
2023/03/23 10:11:55;;;;;;;3.60;0.60;;;12.40;99.90;;;;;;4895192;29;20503;-68
2023/03/23 10:14:32;;;;;;;0.40;0.40;;;12.40;99.90;;;;;;4894178;29;20471;-68
2023/03/23 10:17:08;;;;;;;0.97;0.67;;;12.40;99.90;;;;;;4896149;29;20491;-68
2023/03/23 10:19:43;;;;;;;1.43;1.33;;;12.40;99.90;;;;;;4902771;29;20482;-68
2023/03/23 10:22:11;;;;;;;1.33;0.90;;;12.30;99.90;;;;;;4903405;29;20491;-68
2023/03/23 10:24:46;;;;;;;0.20;0.20;;;12.30;99.90;;;;;;4894519;29;20988;-68
2023/03/23 10:27:23;;;;;;;0.53;0.53;;;12.30;99.90;;;;;;4893485;29;20474;-69
2023/03/23 10:29:56;;;;;;;1.07;0.77;;;12.20;99.90;;;;;;4893900;29;20490;-67
2023/03/23 10:32:41;;;;;;;3.13;0.70;;;12.20;99.90;;;;;;4901645;29;20991;-67
2023/03/23 10:35:15;;;;;;;2.53;1.77;;;12.20;99.90;;;;;;4891469;29;20478;-68
2023/03/23 10:37:47;;;;;;;2.53;0.70;;;12.30;99.90;;;;;;4887823;29;20493;-68
2023/03/23 10:40:18;;;;;;;0.63;0.63;;;12.30;99.90;;;;;;4899692;29;20558;-68
2023/03/23 10:42:44;;;;;;;4.33;1.83;;;12.30;99.90;;;;;;4890909;29;20886;-69
2023/03/23 10:45:18;;;;;;;1.07;1.07;;;12.40;99.90;;;;;;4891548;29;20499;-69
2023/03/23 10:47:52;;;;;;;0.67;0.53;;;12.40;99.90;;;;;;4894907;29;20570;-70
2023/03/23 10:50:24;;;;;;;0.67;0.67;;;12.40;99.90;;;;;;4896565;29;20551;-69
2023/03/23 10:52:53;;;;;;;1.10;0.80;;;12.40;99.90;;;;;;4889558;29;20579;-67
2023/03/23 10:55:22;;;;;;;0.93;0.93;;;12.30;99.90;;;;;;4893377;29;20555;-69
2023/03/23 10:58:01;;;;;;;3.73;2.00;;;12.20;99.90;;;;;;4896029;29;20499;-68
2023/03/23 11:00:31;;;;;;;0.67;0.67;;;12.10;99.90;;;;;;4893657;29;20479;-68
2023/03/23 11:03:01;;;;;;;2.30;0.77;;;12.00;99.90;;;;;;4894493;29;20477;-69
2023/03/23 11:05:36;;;;;;;0.57;0.57;;;11.90;99.90;;;;;;4901456;29;20468;-69
2023/03/23 11:08:03;;;;;;;2.25;0.85;;;11.90;99.90;;;;;;4897560;29;20786;-69
2023/03/23 11:10:36;;;;;;;0.73;0.73;;;11.80;99.90;;;;;;4894546;29;20200;-68
2023/03/23 11:13:09;;;;;;;1.90;0.60;;;11.80;99.90;;;;;;4898588;29;20241;-69
2023/03/23 11:15:39;;;;;;;3.70;0.70;;;11.80;99.90;;;;;;4907597;29;20481;-67
2023/03/23 11:18:10;;;;;;;3.70;0.90;;;11.80;99.90;;;;;;4908873;29;20486;-67
2023/03/23 11:20:39;;;;;;;0.83;0.43;;;11.90;99.90;;;;;;4911811;29;20513;-67
2023/03/23 11:23:11;;;;;;;2.07;1.13;;;11.90;99.90;;;;;;4895764;29;20481;-67
2023/03/23 11:25:59;;;;;;;5.30;1.20;;;11.90;99.90;;;;;;4889585;29;20472;-67
2023/03/23 11:28:34;;;;;;;1.40;1.13;;;12.00;99.90;;;;;;4889644;29;20472;-69
2023/03/23 11:31:04;;;;;;;1.30;0.40;;;12.00;99.90;;;;;;4882333;29;20581;-68
2023/03/23 11:33:35;;;;;;;1.20;1.10;;;12.10;99.90;;;;;;4889886;29;20529;-67
2023/03/23 11:36:02;;;;;;;0.50;0.37;;;12.20;99.90;;;;;;4908814;23;20506;-69
2023/03/23 11:38:29;;;;;;;9.53;1.83;;;12.20;99.90;;;;;;4915290;29;20501;-69
2023/03/23 11:40:56;;;;;;;11.73;1.63;;;12.30;99.90;;;;;;4914206;29;20470;-68
2023/03/23 11:43:24;;;;;;;0.50;0.50;;;12.30;99.90;;;;;;4915543;29;20545;-69
2023/03/23 11:45:59;;;;;;;3.30;3.03;;;12.40;99.90;;;;;;4913581;29;20588;-69
2023/03/23 11:48:34;;;;;;;2.30;2.10;;;12.40;99.90;;;;;;4913670;29;20466;-69
2023/03/23 11:51:05;;;;;;;2.00;1.27;;;12.30;99.90;;;;;;4915827;29;20462;-69
2023/03/23 11:53:41;;;;;;;0.57;0.57;;;12.30;99.90;;;;;;4912498;29;20462;-68
2023/03/23 11:56:16;;;;;;;0.93;0.67;;;12.30;99.90;;;;;;4916880;29;20504;-69
2023/03/23 11:58:44;;;;;;;7.73;1.17;;;12.40;99.90;;;;;;4915787;29;20482;-69
2023/03/23 12:01:18;;;;;;;0.77;0.77;;;12.40;99.90;;;;;;4914255;29;20940;-69
2023/03/23 12:04:04;;;;;;;0.30;0.30;;;12.40;99.90;;;;;;4912446;29;20478;-69
2023/03/23 12:06:39;;;;;;;5.77;1.40;;;12.30;99.90;;;;;;4915832;29;20983;-69
2023/03/23 12:09:19;;;;;;;0.73;0.73;;;12.30;99.90;;;;;;4911538;29;20472;-68
2023/03/23 12:11:56;;;;;;;1.70;0.70;;;12.30;99.90;;;;;;4911024;29;20454;-68
2023/03/23 12:14:32;;;;;;;0.50;0.50;;;12.80;99.90;;;;;;4910582;29;20497;-70
2023/03/23 12:17:08;;;;;;;2.20;1.00;;;12.40;99.90;;;;;;4916373;29;20465;-70
2023/03/23 12:19:43;;;;;;;0.43;0.43;;;12.40;99.90;;;;;;4909475;29;20455;-70
2023/03/23 12:22:24;;;;;;;0.87;0.87;;;12.50;99.90;;;;;;4911677;29;20470;-70
2023/03/23 12:25:05;;;;;;;1.33;1.23;;;12.50;99.90;;;;;;4908828;29;20548;-70
2023/03/23 12:27:40;;;;;;;2.00;1.40;;;12.70;99.90;;;;;;4910895;29;20490;-70
2023/03/23 12:30:22;;;;;;;2.13;2.03;;;12.90;99.90;;;;;;4915514;29;20468;-70
2023/03/23 12:33:08;;;;;;;0.60;0.60;;;13.20;99.90;;;;;;4913376;29;20471;-70
2023/03/23 12:35:49;;;;;;;3.93;1.93;;;13.40;99.90;;;;;;4915088;29;20580;-70
2023/03/23 12:38:29;;;;;;;2.97;1.60;;;13.40;99.90;;;;;;4913995;29;20995;-70
2023/03/23 12:41:06;;;;;;;2.10;1.03;;;13.40;99.90;;;;;;4909583;29;20479;-70
2023/03/23 12:43:39;;;;;;;2.30;0.87;;;13.30;99.90;;;;;;4912925;29;20545;-70
2023/03/23 12:46:18;;;;;;;0.80;0.80;;;13.20;99.90;;;;;;4911913;29;20491;-70
2023/03/23 12:48:50;;;;;;;3.20;2.00;;;13.20;99.90;;;;;;4907569;29;20474;-70
2023/03/23 12:51:24;;;;;;;1.20;1.17;;;13.20;99.90;;;;;;4912790;29;20474;-70
2023/03/23 12:53:58;;;;;;;6.37;1.23;;;13.30;99.90;;;;;;4914026;29;20485;-70
2023/03/23 12:56:32;;;;;;;4.77;1.73;;;13.40;99.90;;;;;;4913312;29;20493;-70
2023/03/23 12:59:08;;;;;;;1.53;1.43;;;13.40;99.90;;;;;;4911906;29;20997;-70
2023/03/23 13:01:39;;;;;;;1.03;0.97;;;13.40;99.90;;;;;;4910582;29;20474;-70
2023/03/23 13:04:09;;;;;;;1.33;1.27;;;13.30;99.90;;;;;;4914366;29;20475;-70
2023/03/23 13:06:39;;;;;;;2.50;0.90;;;13.30;99.90;;;;;;4913408;29;20501;-69
2023/03/23 13:09:13;;;;;;;2.00;1.40;;;13.20;99.90;;;;;;4910199;29;20980;-70
2023/03/23 13:11:42;;;;;;;1.60;0.80;;;13.20;99.90;;;;;;4913721;29;20498;-69
2023/03/23 13:14:26;;;;;;;1.87;1.60;;;13.10;99.90;;;;;;4911858;29;20963;-69
2023/03/23 13:17:01;;;;;;;1.17;1.17;;;13.00;99.90;;;;;;4915233;29;20538;-70
2023/03/23 13:19:35;;;;;;;1.10;1.10;;;13.00;99.90;;;;;;4912729;29;20518;-70
2023/03/23 13:22:10;;;;;;;4.73;0.87;;;13.00;99.90;;;;;;4911561;29;20466;-70
2023/03/23 13:24:50;;;;;;;1.23;0.80;;;13.20;99.90;;;;;;4913508;29;20466;-70
2023/03/23 13:27:17;;;;;;;1.40;1.30;;;13.30;99.90;;;;;;4907428;29;21225;-70
2023/03/23 13:29:46;;;;;;;1.27;0.77;;;13.40;99.90;;;;;;4914300;29;20792;-70
2023/03/23 13:32:17;;;;;;;3.23;0.97;;;13.50;99.90;;;;;;4912483;29;20502;-70
2023/03/23 13:34:44;;;;;;;0.67;0.67;;;13.60;99.90;;;;;;4912578;29;20605;-70
2023/03/23 13:37:23;;;;;;;0.60;0.60;;;13.60;99.90;;;;;;4910902;29;20541;-70
2023/03/23 13:39:53;;;;;;;2.00;1.50;;;13.70;99.90;;;;;;4915160;29;20997;-71
2023/03/23 13:42:22;;;;;;;1.13;1.03;;;13.70;99.90;;;;;;4914320;29;20496;-71
2023/03/23 13:45:09;;;;;;;7.10;2.77;;;13.70;99.90;;;;;;4914334;29;20474;-70
2023/03/23 13:47:39;;;;;;;0.87;0.87;;;13.80;99.90;;;;;;4915224;29;20469;-71
2023/03/23 13:50:13;;;;;;;1.20;1.10;;;13.80;99.90;;;;;;4915448;29;20521;-70
2023/03/23 13:52:51;;;;;;;2.40;1.37;;;13.90;99.90;;;;;;4908965;29;20485;-70
2023/03/23 13:55:40;;;;;;;2.43;1.63;;;13.90;99.90;;;;;;4913095;29;20868;-70
2023/03/23 13:58:13;;;;;;;0.70;0.70;;;13.80;99.90;;;;;;4914597;29;20486;-70
2023/03/23 14:00:49;;;;;;;0.87;0.73;;;13.80;99.90;;;;;;4915781;29;20490;-71
2023/03/23 14:03:20;;;;;;;0.67;0.67;;;14.00;99.90;;;;;;4913877;29;20474;-71
2023/03/23 14:05:50;;;;;;;0.70;0.70;;;13.90;99.90;;;;;;4913717;29;20886;-71
2023/03/23 14:08:25;;;;;;;0.60;0.60;;;13.90;99.90;;;;;;4914661;29;20451;-71
2023/03/23 14:10:56;;;;;;;0.63;0.63;;;13.80;99.90;;;;;;4915024;29;20466;-70
2023/03/23 14:13:33;;;;;;;0.40;0.40;;;13.80;99.90;;;;;;4914423;29;20461;-71
2023/03/23 14:16:02;;;;;;;3.30;0.63;;;13.80;99.90;;;;;;4911987;29;20493;-71
2023/03/23 14:18:33;;;;;;;0.33;0.33;;;13.70;99.90;;;;;;4914706;29;20497;-71
2023/03/23 14:21:01;;;;;;;0.60;0.40;;;13.70;99.90;;;;;;4912828;29;20477;-71
2023/03/23 14:23:32;;;;;;;1.77;0.87;;;13.60;99.90;;;;;;4913599;29;20538;-69
2023/03/23 14:26:07;;;;;;;0.47;0.47;;;13.70;99.90;;;;;;4914155;29;21002;-70
2023/03/23 14:28:38;;;;;;;0.53;0.53;;;13.70;99.90;;;;;;4914850;29;20562;-70
2023/03/23 14:31:06;;;;;;;0.30;0.30;;;13.70;99.90;;;;;;4913116;29;20475;-70
2023/03/23 14:33:32;;;;;;;1.37;0.30;;;13.70;99.90;;;;;;4911526;29;20478;-71
2023/03/23 14:36:00;;;;;;;0.97;0.97;;;13.70;99.90;;;;;;4913064;29;20513;-70
2023/03/23 14:38:31;;;;;;;0.77;0.77;;;13.70;99.90;;;;;;4914597;29;20497;-70
2023/03/23 14:41:03;;;;;;;1.93;0.30;;;13.70;99.90;;;;;;4913696;29;20536;-69
2023/03/23 14:43:31;;;;;;;0.90;0.50;;;13.70;99.90;;;;;;4913482;29;20557;-69
2023/03/23 14:46:02;;;;;;;0.60;0.60;;;13.70;99.90;;;;;;4914022;29;20494;-70
2023/03/23 14:48:30;;;;;;;0.30;0.30;;;13.60;99.90;;;;;;4914551;29;20466;-70
2023/03/23 14:50:59;;;;;;;0.20;0.20;;;13.60;99.90;;;;;;4908902;29;20494;-70
2023/03/23 14:53:30;;;;;;;0.30;0.30;;;13.60;99.90;;;;;;4912131;29;20529;-70
2023/03/23 14:56:07;;;;;;;0.53;0.53;;;13.60;99.90;;;;;;4914208;29;20482;-70
2023/03/23 14:58:34;;;;;;;0.40;0.40;;;13.60;99.90;;;;;;4913649;29;20995;-70
2023/03/23 15:01:06;;;;;;;2.00;1.23;;;13.60;99.90;;;;;;4913500;29;20561;-70
2023/03/23 15:03:36;;;;;;;1.73;0.50;;;13.60;99.90;;;;;;4912836;29;20522;-70
2023/03/23 15:06:07;;;;;;;1.00;1.00;;;13.70;99.90;;;;;;4908529;29;20487;-70
2023/03/23 15:08:35;;;;;;;2.97;1.10;;;13.70;99.90;;;;;;4902040;29;20824;-70
2023/03/23 15:11:13;;;;;;;0.20;0.20;;;13.70;99.90;;;;;;4912420;29;20478;-70
2023/03/23 15:13:45;;;;;;;1.60;0.80;;;13.70;99.90;;;;;;4917098;29;20461;-69
2023/03/23 15:16:15;;;;;;;1.07;0.47;;;13.70;99.90;;;;;;4916094;29;20605;-70
2023/03/23 15:18:53;;;;;;;0.50;0.50;;;13.70;99.90;;;;;;4917125;29;20489;-70
2023/03/23 15:21:25;;;;;;;2.40;1.73;;;13.70;99.90;;;;;;4915159;29;20548;-70
2023/03/23 15:23:52;;;;;;;1.43;0.87;;;13.80;99.90;;;;;;4914199;29;20477;-70
2023/03/23 15:26:26;;;;;;;0.97;0.97;;;13.80;99.90;;;;;;4914283;29;20485;-70
2023/03/23 15:29:03;;;;;;;25.23;3.27;;;13.70;99.90;;;;;;4914806;29;20484;-70
2023/03/23 15:31:30;;;;;;;1.10;1.10;;;13.60;99.90;;;;;;4914978;29;20466;-70
2023/03/23 15:34:05;;;;;;;1.27;1.17;;;13.50;99.90;;;;;;4917673;29;20489;-70
2023/03/23 15:36:34;;;;;;;1.63;0.80;;;13.50;99.90;;;;;;4913594;29;20501;-71
2023/03/23 15:39:02;;;;;;;0.70;0.70;;;13.50;99.90;;;;;;4918869;29;20589;-70
2023/03/23 15:41:33;;;;;;;1.43;0.60;;;13.40;99.90;;;;;;4911110;29;20913;-70
2023/03/23 15:44:11;;;;;;;2.73;0.60;;;13.40;99.90;;;;;;4917039;29;20470;-70
2023/03/23 15:46:49;;;;;;;1.53;0.63;;;13.20;99.90;;;;;;4914307;29;20557;-70
2023/03/23 15:49:16;;;;;;;0.40;0.40;;;13.00;99.90;;;;;;4917271;29;20462;-71
2023/03/23 15:51:43;;;;;;;0.33;0.33;;;12.80;99.90;;;;;;4915812;29;20585;-68
2023/03/23 15:54:14;;;;;;;0.77;0.50;;;12.70;99.90;;;;;;4915679;29;20504;-69
2023/03/23 15:56:42;;;;;;;0.70;0.70;;;12.70;99.90;;;;;;4910391;29;20561;-69
2023/03/23 15:59:09;;;;;;;0.33;0.33;;;12.70;99.90;;;;;;4915081;29;20490;-69
2023/03/23 16:01:38;;;;;;;1.53;0.60;;;12.60;99.90;;;;;;4914867;29;20971;-69
2023/03/23 16:04:07;;;;;;;1.13;1.10;;;12.60;99.90;;;;;;4914397;29;20465;-69
2023/03/23 16:06:35;;;;;;;0.90;0.90;;;12.40;99.90;;;;;;4914839;29;20499;-68
2023/03/23 16:09:02;;;;;;;0.40;0.40;;;12.40;99.90;;;;;;4917261;29;20802;-69
2023/03/23 16:11:31;;;;;;;1.67;0.70;;;12.40;99.90;;;;;;4913925;29;20959;-69
2023/03/23 16:13:59;;;;;;;0.80;0.80;;;12.40;99.90;;;;;;4917248;29;20478;-69
2023/03/23 16:16:29;;;;;;;0.50;0.50;;;12.40;99.90;;;;;;4916886;29;20575;-68
2023/03/23 16:18:56;;;;;;;0.70;0.70;;;12.20;99.90;;;;;;4916855;29;20486;-69
2023/03/23 16:21:23;;;;;;;0.50;0.50;;;12.10;99.90;;;;;;4910987;29;20210;-69
2023/03/23 16:23:49;;;;;;;0.95;0.95;;;12.00;99.90;;;;;;4914072;29;20229;-69
2023/03/23 16:26:17;;;;;;;27.38;2.38;;;11.90;99.90;;;;;;4916407;29;20594;-68
2023/03/23 16:28:44;;;;;;;0.73;0.52;;;11.90;99.90;;;;;;4915902;29;20687;-69
2023/03/23 16:31:12;;;;;;;0.40;0.40;;;11.90;99.90;;;;;;4914568;29;20648;-69
2023/03/23 16:33:39;;;;;;;1.23;0.45;;;11.80;99.90;;;;;;4917206;29;20215;-70
2023/03/23 16:36:07;;;;;;;1.83;0.85;;;11.80;99.90;;;;;;4914383;29;20242;-70
2023/03/23 16:38:33;;;;;;;5.35;1.17;;;11.70;99.90;;;;;;4914848;29;20229;-70
2023/03/23 16:41:00;;;;;;;1.55;0.75;;;11.70;99.90;;;;;;4910825;29;20759;-70
2023/03/23 16:43:27;;;;;;;1.50;0.88;;;11.60;99.90;;;;;;4914154;29;20248;-70
2023/03/23 16:45:56;;;;;;;5.97;0.77;;;11.50;99.90;;;;;;4913582;29;20241;-69
2023/03/23 16:48:25;;;;;;;2.45;0.63;;;11.50;99.90;;;;;;4916514;29;20210;-69
2023/03/23 16:50:54;;;;;;;0.50;0.50;;;11.50;99.90;;;;;;4917994;29;20211;-69
2023/03/23 16:53:21;;;;;;;1.17;1.17;;;11.40;99.90;;;;;;4913277;29;20215;-69
2023/03/23 16:55:47;;;;;;;8.98;7.25;;;11.40;99.90;;;;;;4910054;29;20257;-69
2023/03/23 16:58:15;;;;;;;4.32;3.03;;;11.40;99.90;;;;;;4916755;29;20218;-69
2023/03/23 17:00:42;;;;;;;0.98;0.98;;;11.30;99.90;;;;;;4912953;29;20734;-70
2023/03/23 17:03:09;;;;;;;4.97;1.50;;;11.30;99.90;;;;;;4912002;29;20217;-68
2023/03/23 17:05:38;;;;;;;2.70;2.60;;;11.30;99.90;;;;;;4913794;29;20605;-70
2023/03/23 17:08:05;;;;;;;0.93;0.93;;;11.20;99.90;;;;;;4911472;29;20226;-69
2023/03/23 17:10:32;;;;;;;1.17;0.85;;;11.10;99.90;;;;;;4907631;29;20254;-69
2023/03/23 17:12:59;;;;;;;1.05;1.05;;;11.10;99.90;;;;;;4912236;29;20214;-69
2023/03/23 17:15:26;;;;;;;0.60;0.60;;;11.10;99.90;;;;;;4913356;29;20235;-69
2023/03/23 17:17:53;;;;;;;0.88;0.88;;;11.00;99.90;;;;;;4913736;29;20214;-70
2023/03/23 17:20:20;;;;;;;0.40;0.40;;;11.00;99.90;;;;;;4914884;29;20676;-69
2023/03/23 17:22:48;;;;;;;2.05;0.30;;;11.00;99.90;;;;;;4912580;29;20211;-70
2023/03/23 17:25:15;;;;;;;1.30;1.30;;;10.90;99.90;;;;;;4913554;29;20230;-70
2023/03/23 17:27:42;;;;;;;1.80;1.70;;;10.90;99.90;;;;;;4914306;29;20215;-69
2023/03/23 17:30:10;;;;;;;3.40;0.88;;;10.90;99.90;;;;;;4914822;29;20229;-69
2023/03/23 17:32:37;;;;;;;4.20;1.58;;;10.80;99.90;;;;;;4913604;29;20218;-69
2023/03/23 17:35:04;;;;;;;1.15;1.15;;;10.80;99.90;;;;;;4912555;29;20238;-69
2023/03/23 17:37:32;;;;;;;1.25;1.25;;;10.80;99.90;;;;;;4913337;29;20221;-69
2023/03/23 17:40:00;;;;;;;1.45;1.20;;;10.70;99.90;;;;;;4914836;29;20230;-69
2023/03/23 17:42:27;;;;;;;2.22;2.20;;;10.70;99.90;;;;;;4911757;29;20219;-70
2023/03/23 17:44:54;;;;;;;4.35;3.85;;;10.70;99.90;;;;;;4906365;29;20234;-69
2023/03/23 17:47:21;;;;;;;2.22;2.13;;;10.60;99.90;;;;;;4913853;29;20233;-68
2023/03/23 17:49:47;;;;;;;5.05;4.05;;;10.60;99.90;;;;;;4913475;29;20210;-68
2023/03/23 17:52:14;;;;;;;6.35;1.58;;;10.60;99.90;;;;;;4914086;29;20214;-68
2023/03/23 17:54:42;;;;;;;14.63;4.22;;;10.50;99.90;;;;;;4909517;29;20632;-68
2023/03/23 17:57:10;;;;;;;2.75;1.90;;;10.50;99.90;;;;;;4914864;29;20573;-69
2023/03/23 17:59:37;;;;;;;1.52;1.38;;;10.60;99.90;;;;;;4912279;29;20658;-69
2023/03/23 18:02:04;;;;;;;2.05;1.95;;;10.60;99.90;;;;;;4914431;29;20217;-70
2023/03/23 18:04:31;;;;;;;4.63;1.67;;;10.70;99.90;;;;;;4912812;29;20214;-70